CheckWX is a tool to help pilots better visualize weather data.  It is not intended as a substitute for an official pre-flight weather briefing.

15:47:13 UTC

KCUB TAF
Jim Hamilton L.B. Owens Airport
Columbia, South Carolina, USA
KCUB 151740Z 1518/1618 VRB05KT P6SM SCT050 SCT100 FM160300 VRB03KT P6SM SCT250 FM161500 VRB05KT P6SM SCT050

Jul-15@
18:00 UTC

Jul-15 @ 18:00 UTC

Jul-16@
03:00 UTC

Jul-16 @ 03:00 UTC

TAF KCUB 151740Z 1518/1618 VRB05KT P6SM SCT050 SCT100

Expired

Wind
  • Variable at 5 KTS
Cloud Levels
  • Scattered at 5,000' AGL
  • Scattered at 10,000' AGL

Jul-16@
03:00 UTC

Jul-16 @ 03:00 UTC

Jul-16@
15:00 UTC

Jul-16 @ 15:00 UTC

FM160300 VRB03KT P6SM SCT250

Expired

Wind
  • Variable at 3 KTS
Cloud Levels
  • Scattered at 25,000' AGL

Jul-16@
15:00 UTC

Jul-16 @ 15:00 UTC

Jul-16@
18:00 UTC

Jul-16 @ 18:00 UTC

FM161500 VRB05KT P6SM SCT050

From

From Standard forecast or significant change

Wind
  • Variable at 5 KTS
Cloud Levels
  • Scattered at 5,000' AGL